sensor_id;sensor_type;location;lat;lon;timestamp;P1;durP1;ratioP1;P2;durP2;ratioP2
69183;SDS011;56291;53.960;27.550;2023-03-01T02:02:18;3.83;;;1.65;;
69183;SDS011;56291;53.960;27.550;2023-03-01T02:04:45;4.65;;;2.05;;
69183;SDS011;56291;53.960;27.550;2023-03-01T02:07:15;2.13;;;1.55;;
69183;SDS011;56291;53.960;27.550;2023-03-01T02:09:47;3.13;;;1.85;;
69183;SDS011;56291;53.960;27.550;2023-03-01T02:12:16;3.50;;;2.25;;
69183;SDS011;56291;53.960;27.550;2023-03-01T02:14:45;3.67;;;1.77;;
69183;SDS011;56291;53.960;27.550;2023-03-01T02:17:11;2.97;;;1.90;;
69183;SDS011;56291;53.960;27.550;2023-03-01T02:20:27;3.65;;;1.73;;
69183;SDS011;56291;53.960;27.550;2023-03-01T02:22:45;3.50;;;2.00;;
69183;SDS011;56291;53.960;27.550;2023-03-01T02:30:18;1.58;;;1.48;;
69183;SDS011;56291;53.960;27.550;2023-03-01T02:32:46;2.50;;;2.10;;
69183;SDS011;56291;53.960;27.550;2023-03-01T02:35:14;5.35;;;2.08;;
69183;SDS011;56291;53.960;27.550;2023-03-01T02:37:42;6.97;;;2.30;;
69183;SDS011;56291;53.960;27.550;2023-03-01T02:40:14;4.47;;;2.40;;
69183;SDS011;56291;53.960;27.550;2023-03-01T02:42:53;4.05;;;1.70;;
69183;SDS011;56291;53.960;27.550;2023-03-01T02:45:23;2.50;;;1.65;;
69183;SDS011;56291;53.960;27.550;2023-03-01T02:47:53;5.43;;;2.20;;
69183;SDS011;56291;53.960;27.550;2023-03-01T02:53:04;5.70;;;1.98;;
69183;SDS011;56291;53.960;27.550;2023-03-01T02:55:38;4.90;;;1.83;;
69183;SDS011;56291;53.960;27.550;2023-03-01T02:58:05;8.00;;;1.63;;
69183;SDS011;56291;53.960;27.550;2023-03-01T03:00:39;2.42;;;1.83;;
69183;SDS011;56291;53.960;27.550;2023-03-01T03:03:11;5.97;;;3.50;;
69183;SDS011;56291;53.960;27.550;2023-03-01T03:05:40;5.13;;;3.42;;
69183;SDS011;56291;53.960;27.550;2023-03-01T03:08:07;6.68;;;3.08;;
69183;SDS011;56291;53.960;27.550;2023-03-01T03:10:35;8.40;;;4.55;;
69183;SDS011;56291;53.960;27.550;2023-03-01T03:13:07;7.97;;;4.43;;
69183;SDS011;56291;53.960;27.550;2023-03-01T03:15:36;9.77;;;4.28;;
69183;SDS011;56291;53.960;27.550;2023-03-01T03:18:05;10.95;;;4.50;;
69183;SDS011;56291;53.960;27.550;2023-03-01T03:20:34;7.65;;;3.42;;
69183;SDS011;56291;53.960;27.550;2023-03-01T03:23:01;5.97;;;3.63;;
69183;SDS011;56291;53.960;27.550;2023-03-01T03:25:28;4.15;;;2.83;;
69183;SDS011;56291;53.960;27.550;2023-03-01T03:27:55;6.30;;;3.03;;
69183;SDS011;56291;53.960;27.550;2023-03-01T03:30:31;4.75;;;2.80;;
69183;SDS011;56291;53.960;27.550;2023-03-01T03:32:58;9.57;;;2.97;;
69183;SDS011;56291;53.960;27.550;2023-03-01T03:35:29;5.15;;;2.53;;
69183;SDS011;56291;53.960;27.550;2023-03-01T03:37:58;4.22;;;2.47;;
69183;SDS011;56291;53.960;27.550;2023-03-01T03:40:33;6.70;;;3.37;;
69183;SDS011;56291;53.960;27.550;2023-03-01T03:43:05;8.07;;;3.88;;
69183;SDS011;56291;53.960;27.550;2023-03-01T03:45:33;12.82;;;4.18;;
69183;SDS011;56291;53.960;27.550;2023-03-01T03:48:01;9.65;;;4.75;;
69183;SDS011;56291;53.960;27.550;2023-03-01T03:50:29;5.90;;;3.40;;
69183;SDS011;56291;53.960;27.550;2023-03-01T03:55:45;6.00;;;3.00;;
69183;SDS011;56291;53.960;27.550;2023-03-01T03:58:14;5.43;;;2.83;;
69183;SDS011;56291;53.960;27.550;2023-03-01T04:00:44;6.47;;;3.33;;
69183;SDS011;56291;53.960;27.550;2023-03-01T04:03:12;6.20;;;3.08;;
69183;SDS011;56291;53.960;27.550;2023-03-01T04:05:40;8.27;;;3.17;;
69183;SDS011;56291;53.960;27.550;2023-03-01T04:08:07;8.57;;;3.35;;
69183;SDS011;56291;53.960;27.550;2023-03-01T04:10:35;6.57;;;3.35;;
69183;SDS011;56291;53.960;27.550;2023-03-01T04:13:10;4.90;;;2.92;;
69183;SDS011;56291;53.960;27.550;2023-03-01T04:15:38;4.57;;;2.10;;
69183;SDS011;56291;53.960;27.550;2023-03-01T04:18:06;9.00;;;2.95;;
69183;SDS011;56291;53.960;27.550;2023-03-01T04:20:34;7.90;;;2.85;;
69183;SDS011;56291;53.960;27.550;2023-03-01T04:23:05;7.55;;;2.63;;
69183;SDS011;56291;53.960;27.550;2023-03-01T04:25:55;7.03;;;2.15;;
69183;SDS011;56291;53.960;27.550;2023-03-01T04:28:28;7.50;;;1.83;;
69183;SDS011;56291;53.960;27.550;2023-03-01T04:31:03;5.43;;;2.70;;
69183;SDS011;56291;53.960;27.550;2023-03-01T04:33:46;4.13;;;2.40;;
69183;SDS011;56291;53.960;27.550;2023-03-01T04:36:15;6.90;;;2.70;;
69183;SDS011;56291;53.960;27.550;2023-03-01T04:38:42;4.18;;;2.40;;
69183;SDS011;56291;53.960;27.550;2023-03-01T04:41:12;5.13;;;2.53;;
69183;SDS011;56291;53.960;27.550;2023-03-01T04:43:40;17.30;;;3.55;;
69183;SDS011;56291;53.960;27.550;2023-03-01T04:46:07;11.15;;;3.90;;
69183;SDS011;56291;53.960;27.550;2023-03-01T04:48:36;11.40;;;3.45;;
69183;SDS011;56291;53.960;27.550;2023-03-01T04:51:04;13.20;;;4.18;;
69183;SDS011;56291;53.960;27.550;2023-03-01T04:53:31;10.82;;;3.20;;
69183;SDS011;56291;53.960;27.550;2023-03-01T04:55:58;13.65;;;3.17;;
69183;SDS011;56291;53.960;27.550;2023-03-01T04:58:25;9.40;;;3.53;;
69183;SDS011;56291;53.960;27.550;2023-03-01T05:00:54;8.27;;;3.35;;
69183;SDS011;56291;53.960;27.550;2023-03-01T05:03:21;10.57;;;3.63;;
69183;SDS011;56291;53.960;27.550;2023-03-01T05:05:48;9.05;;;4.18;;
69183;SDS011;56291;53.960;27.550;2023-03-01T05:08:16;8.32;;;3.42;;
69183;SDS011;56291;53.960;27.550;2023-03-01T05:10:52;10.65;;;3.65;;
69183;SDS011;56291;53.960;27.550;2023-03-01T05:13:20;9.10;;;3.08;;
69183;SDS011;56291;53.960;27.550;2023-03-01T05:15:59;8.32;;;3.72;;
69183;SDS011;56291;53.960;27.550;2023-03-01T05:18:27;10.43;;;3.17;;
69183;SDS011;56291;53.960;27.550;2023-03-01T05:21:07;7.13;;;2.58;;
69183;SDS011;56291;53.960;27.550;2023-03-01T05:23:35;8.43;;;2.45;;
69183;SDS011;56291;53.960;27.550;2023-03-01T05:26:02;7.95;;;2.58;;
69183;SDS011;56291;53.960;27.550;2023-03-01T05:28:32;12.20;;;2.92;;
69183;SDS011;56291;53.960;27.550;2023-03-01T05:31:00;6.80;;;2.42;;
69183;SDS011;56291;53.960;27.550;2023-03-01T05:33:34;10.98;;;2.70;;
69183;SDS011;56291;53.960;27.550;2023-03-01T05:36:03;9.77;;;3.75;;
69183;SDS011;56291;53.960;27.550;2023-03-01T05:38:30;7.32;;;3.53;;
69183;SDS011;56291;53.960;27.550;2023-03-01T05:40:56;9.80;;;2.90;;
69183;SDS011;56291;53.960;27.550;2023-03-01T05:43:23;7.40;;;2.97;;
69183;SDS011;56291;53.960;27.550;2023-03-01T05:45:49;7.22;;;3.08;;
69183;SDS011;56291;53.960;27.550;2023-03-01T05:48:16;8.35;;;3.10;;
69183;SDS011;56291;53.960;27.550;2023-03-01T05:50:44;9.52;;;3.22;;
69183;SDS011;56291;53.960;27.550;2023-03-01T05:53:16;6.38;;;2.60;;
69183;SDS011;56291;53.960;27.550;2023-03-01T05:55:47;7.13;;;3.28;;
69183;SDS011;56291;53.960;27.550;2023-03-01T05:58:16;11.18;;;3.80;;
69183;SDS011;56291;53.960;27.550;2023-03-01T06:00:45;6.18;;;3.10;;
69183;SDS011;56291;53.960;27.550;2023-03-01T06:03:13;3.10;;;1.13;;
69183;SDS011;56291;53.960;27.550;2023-03-01T06:05:41;8.02;;;2.65;;
69183;SDS011;56291;53.960;27.550;2023-03-01T06:08:10;10.18;;;2.38;;
69183;SDS011;56291;53.960;27.550;2023-03-01T06:10:37;8.07;;;1.65;;
69183;SDS011;56291;53.960;27.550;2023-03-01T06:13:04;4.53;;;1.80;;
69183;SDS011;56291;53.960;27.550;2023-03-01T06:15:30;3.40;;;1.42;;
69183;SDS011;56291;53.960;27.550;2023-03-01T06:17:57;4.03;;;2.00;;
69183;SDS011;56291;53.960;27.550;2023-03-01T06:20:24;2.33;;;1.38;;
69183;SDS011;56291;53.960;27.550;2023-03-01T06:22:51;11.48;;;1.92;;
69183;SDS011;56291;53.960;27.550;2023-03-01T06:25:19;4.70;;;2.13;;
69183;SDS011;56291;53.960;27.550;2023-03-01T06:27:47;1.38;;;1.10;;
69183;SDS011;56291;53.960;27.550;2023-03-01T06:30:15;6.80;;;1.75;;
69183;SDS011;56291;53.960;27.550;2023-03-01T06:32:43;3.47;;;1.70;;
69183;SDS011;56291;53.960;27.550;2023-03-01T06:35:10;4.50;;;1.52;;
69183;SDS011;56291;53.960;27.550;2023-03-01T06:37:38;4.32;;;1.60;;
69183;SDS011;56291;53.960;27.550;2023-03-01T06:40:08;4.68;;;1.60;;
69183;SDS011;56291;53.960;27.550;2023-03-01T06:42:36;3.78;;;1.38;;
69183;SDS011;56291;53.960;27.550;2023-03-01T06:45:04;9.45;;;1.83;;
69183;SDS011;56291;53.960;27.550;2023-03-01T06:47:32;4.70;;;1.63;;
69183;SDS011;56291;53.960;27.550;2023-03-01T06:49:59;2.72;;;1.80;;
69183;SDS011;56291;53.960;27.550;2023-03-01T06:52:26;3.45;;;1.40;;
69183;SDS011;56291;53.960;27.550;2023-03-01T06:54:52;9.10;;;2.03;;
69183;SDS011;56291;53.960;27.550;2023-03-01T06:57:19;2.88;;;1.48;;
69183;SDS011;56291;53.960;27.550;2023-03-01T06:59:46;3.67;;;1.63;;
69183;SDS011;56291;53.960;27.550;2023-03-01T07:02:13;8.55;;;3.22;;
69183;SDS011;56291;53.960;27.550;2023-03-01T07:04:40;5.57;;;2.33;;
69183;SDS011;56291;53.960;27.550;2023-03-01T07:07:06;7.45;;;2.47;;
69183;SDS011;56291;53.960;27.550;2023-03-01T07:09:33;5.70;;;3.00;;
69183;SDS011;56291;53.960;27.550;2023-03-01T07:11:59;9.15;;;3.85;;
69183;SDS011;56291;53.960;27.550;2023-03-01T07:14:25;13.25;;;4.30;;
69183;SDS011;56291;53.960;27.550;2023-03-01T07:16:52;9.63;;;3.80;;
69183;SDS011;56291;53.960;27.550;2023-03-01T07:19:19;7.68;;;3.25;;
69183;SDS011;56291;53.960;27.550;2023-03-01T07:21:46;5.70;;;2.88;;
69183;SDS011;56291;53.960;27.550;2023-03-01T07:24:12;8.52;;;3.35;;
69183;SDS011;56291;53.960;27.550;2023-03-01T07:26:39;11.70;;;3.50;;
69183;SDS011;56291;53.960;27.550;2023-03-01T07:29:06;6.28;;;3.15;;
69183;SDS011;56291;53.960;27.550;2023-03-01T07:31:34;5.28;;;2.80;;
69183;SDS011;56291;53.960;27.550;2023-03-01T07:34:01;7.20;;;2.80;;
69183;SDS011;56291;53.960;27.550;2023-03-01T07:36:29;5.25;;;2.67;;
69183;SDS011;56291;53.960;27.550;2023-03-01T07:38:55;8.75;;;2.92;;
69183;SDS011;56291;53.960;27.550;2023-03-01T07:41:22;9.73;;;3.55;;
69183;SDS011;56291;53.960;27.550;2023-03-01T07:43:49;9.98;;;3.83;;
69183;SDS011;56291;53.960;27.550;2023-03-01T07:46:15;10.70;;;3.55;;
69183;SDS011;56291;53.960;27.550;2023-03-01T07:48:42;8.98;;;3.58;;
69183;SDS011;56291;53.960;27.550;2023-03-01T07:51:09;15.82;;;6.07;;
69183;SDS011;56291;53.960;27.550;2023-03-01T07:53:35;9.68;;;4.10;;
69183;SDS011;56291;53.960;27.550;2023-03-01T07:56:03;14.57;;;5.32;;
69183;SDS011;56291;53.960;27.550;2023-03-01T07:58:30;10.13;;;4.10;;
69183;SDS011;56291;53.960;27.550;2023-03-01T08:01:01;7.80;;;4.22;;
69183;SDS011;56291;53.960;27.550;2023-03-01T08:03:28;8.15;;;3.92;;
69183;SDS011;56291;53.960;27.550;2023-03-01T08:05:54;8.18;;;3.85;;
69183;SDS011;56291;53.960;27.550;2023-03-01T08:08:21;9.05;;;4.45;;
69183;SDS011;56291;53.960;27.550;2023-03-01T08:10:47;9.07;;;3.88;;
69183;SDS011;56291;53.960;27.550;2023-03-01T08:13:13;11.52;;;3.38;;
69183;SDS011;56291;53.960;27.550;2023-03-01T08:15:39;9.30;;;3.28;;
69183;SDS011;56291;53.960;27.550;2023-03-01T08:18:06;6.75;;;2.95;;
69183;SDS011;56291;53.960;27.550;2023-03-01T08:20:32;8.45;;;3.20;;
69183;SDS011;56291;53.960;27.550;2023-03-01T08:22:59;13.73;;;3.83;;
69183;SDS011;56291;53.960;27.550;2023-03-01T08:25:25;8.57;;;3.40;;
69183;SDS011;56291;53.960;27.550;2023-03-01T08:27:52;11.27;;;3.47;;
69183;SDS011;56291;53.960;27.550;2023-03-01T08:30:18;14.30;;;4.07;;
69183;SDS011;56291;53.960;27.550;2023-03-01T08:32:45;9.73;;;4.10;;
69183;SDS011;56291;53.960;27.550;2023-03-01T08:35:11;15.10;;;4.63;;
69183;SDS011;56291;53.960;27.550;2023-03-01T08:37:38;7.68;;;3.83;;
69183;SDS011;56291;53.960;27.550;2023-03-01T08:40:04;12.82;;;5.47;;
69183;SDS011;56291;53.960;27.550;2023-03-01T08:42:33;10.68;;;4.60;;
69183;SDS011;56291;53.960;27.550;2023-03-01T08:44:59;12.75;;;5.18;;
69183;SDS011;56291;53.960;27.550;2023-03-01T08:50:25;13.50;;;5.50;;
69183;SDS011;56291;53.960;27.550;2023-03-01T08:52:54;14.85;;;6.80;;
69183;SDS011;56291;53.960;27.550;2023-03-01T08:55:20;11.77;;;4.65;;
69183;SDS011;56291;53.960;27.550;2023-03-01T08:57:46;11.32;;;4.95;;
69183;SDS011;56291;53.960;27.550;2023-03-01T09:00:14;15.45;;;4.90;;
69183;SDS011;56291;53.960;27.550;2023-03-01T09:02:42;13.50;;;4.40;;
69183;SDS011;56291;53.960;27.550;2023-03-01T09:05:08;9.68;;;4.65;;
69183;SDS011;56291;53.960;27.550;2023-03-01T09:07:35;12.02;;;5.07;;
69183;SDS011;56291;53.960;27.550;2023-03-01T09:10:04;15.63;;;5.70;;
69183;SDS011;56291;53.960;27.550;2023-03-01T09:12:31;20.45;;;8.02;;
69183;SDS011;56291;53.960;27.550;2023-03-01T09:14:57;18.90;;;6.07;;
69183;SDS011;56291;53.960;27.550;2023-03-01T09:17:23;27.63;;;8.50;;
69183;SDS011;56291;53.960;27.550;2023-03-01T09:19:49;16.35;;;6.10;;
69183;SDS011;56291;53.960;27.550;2023-03-01T09:22:16;23.30;;;7.45;;
69183;SDS011;56291;53.960;27.550;2023-03-01T09:24:42;20.23;;;6.07;;
69183;SDS011;56291;53.960;27.550;2023-03-01T09:27:11;19.13;;;6.88;;
69183;SDS011;56291;53.960;27.550;2023-03-01T09:29:39;15.10;;;5.65;;
69183;SDS011;56291;53.960;27.550;2023-03-01T09:32:05;17.33;;;6.20;;
69183;SDS011;56291;53.960;27.550;2023-03-01T09:34:33;20.05;;;6.38;;
69183;SDS011;56291;53.960;27.550;2023-03-01T09:37:19;21.88;;;7.43;;
69183;SDS011;56291;53.960;27.550;2023-03-01T09:39:46;13.13;;;5.18;;
69183;SDS011;56291;53.960;27.550;2023-03-01T09:42:13;17.95;;;6.03;;
69183;SDS011;56291;53.960;27.550;2023-03-01T09:47:30;11.48;;;5.05;;
69183;SDS011;56291;53.960;27.550;2023-03-01T09:52:40;13.95;;;4.45;;
69183;SDS011;56291;53.960;27.550;2023-03-01T10:09:38;19.08;;;5.20;;
69183;SDS011;56291;53.960;27.550;2023-03-01T10:12:35;15.02;;;5.68;;
69183;SDS011;56291;53.960;27.550;2023-03-01T10:15:17;17.00;;;6.15;;
69183;SDS011;56291;53.960;27.550;2023-03-01T10:20:26;14.65;;;5.70;;
69183;SDS011;56291;53.960;27.550;2023-03-01T10:23:08;11.23;;;5.20;;
69183;SDS011;56291;53.960;27.550;2023-03-01T10:28:25;14.95;;;5.32;;
69183;SDS011;56291;53.960;27.550;2023-03-01T10:31:04;10.45;;;2.95;;
69183;SDS011;56291;53.960;27.550;2023-03-01T10:33:37;15.38;;;4.68;;
69183;SDS011;56291;53.960;27.550;2023-03-01T10:36:07;10.93;;;4.00;;
69183;SDS011;56291;53.960;27.550;2023-03-01T10:41:25;11.23;;;4.28;;
69183;SDS011;56291;53.960;27.550;2023-03-01T10:43:53;9.23;;;3.97;;
69183;SDS011;56291;53.960;27.550;2023-03-01T10:46:35;11.95;;;4.97;;
69183;SDS011;56291;53.960;27.550;2023-03-01T10:51:45;12.27;;;4.55;;
69183;SDS011;56291;53.960;27.550;2023-03-01T10:54:16;9.32;;;4.25;;
69183;SDS011;56291;53.960;27.550;2023-03-01T11:00:27;6.53;;;2.83;;
69183;SDS011;56291;53.960;27.550;2023-03-01T11:03:02;9.20;;;3.80;;
69183;SDS011;56291;53.960;27.550;2023-03-01T11:05:37;15.25;;;5.47;;
69183;SDS011;56291;53.960;27.550;2023-03-01T11:08:15;20.05;;;6.45;;
69183;SDS011;56291;53.960;27.550;2023-03-01T11:11:29;14.48;;;4.47;;
69183;SDS011;56291;53.960;27.550;2023-03-01T11:14:16;13.35;;;4.68;;
69183;SDS011;56291;53.960;27.550;2023-03-01T11:16:48;13.30;;;4.60;;
69183;SDS011;56291;53.960;27.550;2023-03-01T11:19:25;16.75;;;6.00;;
69183;SDS011;56291;53.960;27.550;2023-03-01T11:24:33;15.38;;;6.00;;
69183;SDS011;56291;53.960;27.550;2023-03-01T11:29:50;19.08;;;6.40;;
69183;SDS011;56291;53.960;27.550;2023-03-01T11:36:01;14.55;;;5.00;;
69183;SDS011;56291;53.960;27.550;2023-03-01T11:38:32;10.85;;;3.67;;
69183;SDS011;56291;53.960;27.550;2023-03-01T11:41:04;13.55;;;3.85;;
69183;SDS011;56291;53.960;27.550;2023-03-01T11:46:40;8.40;;;3.10;;
69183;SDS011;56291;53.960;27.550;2023-03-01T11:52:05;8.57;;;3.03;;
69183;SDS011;56291;53.960;27.550;2023-03-01T11:57:43;6.13;;;2.78;;
69183;SDS011;56291;53.960;27.550;2023-03-01T12:00:36;8.82;;;3.50;;
69183;SDS011;56291;53.960;27.550;2023-03-01T12:03:31;23.77;;;6.72;;
69183;SDS011;56291;53.960;27.550;2023-03-01T12:39:28;10.52;;;4.13;;
69183;SDS011;56291;53.960;27.550;2023-03-01T12:42:05;15.93;;;5.35;;
69183;SDS011;56291;53.960;27.550;2023-03-01T12:48:06;15.52;;;5.18;;
69183;SDS011;56291;53.960;27.550;2023-03-01T12:50:42;8.43;;;2.70;;
69183;SDS011;56291;53.960;27.550;2023-03-01T12:53:22;9.93;;;3.78;;
69183;SDS011;56291;53.960;27.550;2023-03-01T12:55:57;12.88;;;4.78;;
69183;SDS011;56291;53.960;27.550;2023-03-01T13:06:53;12.27;;;4.40;;
69183;SDS011;56291;53.960;27.550;2023-03-01T13:09:31;11.52;;;3.80;;
69183;SDS011;56291;53.960;27.550;2023-03-01T13:12:03;11.48;;;4.05;;
69183;SDS011;56291;53.960;27.550;2023-03-01T13:14:50;10.40;;;3.97;;
69183;SDS011;56291;53.960;27.550;2023-03-01T13:17:40;7.80;;;3.22;;
69183;SDS011;56291;53.960;27.550;2023-03-01T13:22:39;13.32;;;4.20;;
69183;SDS011;56291;53.960;27.550;2023-03-01T13:25:39;15.25;;;4.43;;
69183;SDS011;56291;53.960;27.550;2023-03-01T13:31:08;15.20;;;5.40;;
69183;SDS011;56291;53.960;27.550;2023-03-01T13:33:55;15.38;;;4.88;;
69183;SDS011;56291;53.960;27.550;2023-03-01T13:39:01;18.65;;;5.70;;
69183;SDS011;56291;53.960;27.550;2023-03-01T13:41:56;19.42;;;5.32;;
69183;SDS011;56291;53.960;27.550;2023-03-01T13:49:43;16.42;;;5.28;;
69183;SDS011;56291;53.960;27.550;2023-03-01T13:57:40;14.80;;;4.82;;
69183;SDS011;56291;53.960;27.550;2023-03-01T14:00:27;14.10;;;4.65;;
69183;SDS011;56291;53.960;27.550;2023-03-01T14:03:05;11.32;;;3.85;;
69183;SDS011;56291;53.960;27.550;2023-03-01T14:05:35;13.38;;;4.20;;
69183;SDS011;56291;53.960;27.550;2023-03-01T14:08:03;13.60;;;4.45;;
69183;SDS011;56291;53.960;27.550;2023-03-01T14:21:34;17.52;;;4.72;;
69183;SDS011;56291;53.960;27.550;2023-03-01T14:24:03;12.50;;;5.05;;
69183;SDS011;56291;53.960;27.550;2023-03-01T14:26:29;14.57;;;4.40;;
69183;SDS011;56291;53.960;27.550;2023-03-01T14:29:00;16.40;;;4.97;;
69183;SDS011;56291;53.960;27.550;2023-03-01T14:33:56;20.50;;;6.55;;
69183;SDS011;56291;53.960;27.550;2023-03-01T14:36:30;18.88;;;6.28;;
69183;SDS011;56291;53.960;27.550;2023-03-01T14:38:57;14.43;;;4.88;;
69183;SDS011;56291;53.960;27.550;2023-03-01T14:41:29;12.20;;;3.80;;
69183;SDS011;56291;53.960;27.550;2023-03-01T14:46:33;9.30;;;3.10;;
69183;SDS011;56291;53.960;27.550;2023-03-01T14:49:10;10.40;;;3.55;;
69183;SDS011;56291;53.960;27.550;2023-03-01T14:51:51;5.97;;;2.20;;
69183;SDS011;56291;53.960;27.550;2023-03-01T14:54:29;6.47;;;2.10;;
69183;SDS011;56291;53.960;27.550;2023-03-01T14:57:01;8.23;;;2.58;;
69183;SDS011;56291;53.960;27.550;2023-03-01T14:59:28;5.18;;;1.98;;
69183;SDS011;56291;53.960;27.550;2023-03-01T15:01:55;6.28;;;1.90;;
69183;SDS011;56291;53.960;27.550;2023-03-01T15:04:26;11.68;;;2.33;;
69183;SDS011;56291;53.960;27.550;2023-03-01T15:06:54;10.50;;;2.33;;
69183;SDS011;56291;53.960;27.550;2023-03-01T15:09:29;4.90;;;2.30;;
69183;SDS011;56291;53.960;27.550;2023-03-01T15:11:59;3.92;;;2.00;;
69183;SDS011;56291;53.960;27.550;2023-03-01T15:14:28;10.13;;;2.75;;
69183;SDS011;56291;53.960;27.550;2023-03-01T15:19:55;7.40;;;2.67;;
69183;SDS011;56291;53.960;27.550;2023-03-01T15:22:23;8.90;;;3.83;;
69183;SDS011;56291;53.960;27.550;2023-03-01T15:24:51;9.07;;;1.98;;
69183;SDS011;56291;53.960;27.550;2023-03-01T15:27:20;5.60;;;1.65;;
69183;SDS011;56291;53.960;27.550;2023-03-01T15:29:53;6.18;;;2.20;;
69183;SDS011;56291;53.960;27.550;2023-03-01T15:32:31;5.85;;;2.50;;
69183;SDS011;56291;53.960;27.550;2023-03-01T15:35:00;6.10;;;1.70;;
69183;SDS011;56291;53.960;27.550;2023-03-01T15:37:55;6.68;;;2.05;;
69183;SDS011;56291;53.960;27.550;2023-03-01T15:40:28;9.13;;;1.90;;
69183;SDS011;56291;53.960;27.550;2023-03-01T15:43:03;4.57;;;1.95;;
69183;SDS011;56291;53.960;27.550;2023-03-01T15:45:34;5.72;;;1.73;;
69183;SDS011;56291;53.960;27.550;2023-03-01T15:48:14;6.70;;;1.58;;
69183;SDS011;56291;53.960;27.550;2023-03-01T15:50:53;4.45;;;2.22;;
69183;SDS011;56291;53.960;27.550;2023-03-01T15:53:23;3.75;;;1.60;;
69183;SDS011;56291;53.960;27.550;2023-03-01T15:55:52;6.60;;;2.00;;
69183;SDS011;56291;53.960;27.550;2023-03-01T15:58:22;7.03;;;1.48;;
69183;SDS011;56291;53.960;27.550;2023-03-01T16:00:55;9.20;;;2.03;;
69183;SDS011;56291;53.960;27.550;2023-03-01T16:03:22;6.15;;;1.55;;
69183;SDS011;56291;53.960;27.550;2023-03-01T16:05:49;5.43;;;1.80;;
69183;SDS011;56291;53.960;27.550;2023-03-01T16:08:15;8.68;;;2.00;;
69183;SDS011;56291;53.960;27.550;2023-03-01T16:10:43;5.07;;;1.73;;
69183;SDS011;56291;53.960;27.550;2023-03-01T16:13:14;4.35;;;1.60;;
69183;SDS011;56291;53.960;27.550;2023-03-01T16:15:40;7.05;;;2.15;;
69183;SDS011;56291;53.960;27.550;2023-03-01T16:20:37;10.95;;;2.30;;
69183;SDS011;56291;53.960;27.550;2023-03-01T16:23:05;4.25;;;1.75;;
69183;SDS011;56291;53.960;27.550;2023-03-01T16:25:32;5.65;;;1.80;;
69183;SDS011;56291;53.960;27.550;2023-03-01T16:28:01;3.45;;;1.40;;
69183;SDS011;56291;53.960;27.550;2023-03-01T16:30:30;6.40;;;1.52;;
69183;SDS011;56291;53.960;27.550;2023-03-01T16:32:56;2.28;;;0.98;;
69183;SDS011;56291;53.960;27.550;2023-03-01T16:35:24;2.38;;;1.15;;
69183;SDS011;56291;53.960;27.550;2023-03-01T16:37:50;6.15;;;1.58;;
69183;SDS011;56291;53.960;27.550;2023-03-01T16:40:23;3.55;;;1.23;;
69183;SDS011;56291;53.960;27.550;2023-03-01T16:45:25;3.67;;;1.50;;
69183;SDS011;56291;53.960;27.550;2023-03-01T16:48:00;5.43;;;1.80;;
69183;SDS011;56291;53.960;27.550;2023-03-01T16:50:27;4.63;;;1.90;;
69183;SDS011;56291;53.960;27.550;2023-03-01T16:52:59;4.03;;;2.00;;
69183;SDS011;56291;53.960;27.550;2023-03-01T16:55:25;3.72;;;1.83;;
69183;SDS011;56291;53.960;27.550;2023-03-01T16:57:51;8.43;;;3.58;;
69183;SDS011;56291;53.960;27.550;2023-03-01T17:00:18;29.38;;;9.70;;
69183;SDS011;56291;53.960;27.550;2023-03-01T17:02:44;32.67;;;11.25;;
69183;SDS011;56291;53.960;27.550;2023-03-01T17:05:11;14.52;;;5.82;;
69183;SDS011;56291;53.960;27.550;2023-03-01T17:07:37;11.60;;;3.63;;
69183;SDS011;56291;53.960;27.550;2023-03-01T17:10:05;10.98;;;3.50;;
69183;SDS011;56291;53.960;27.550;2023-03-01T17:12:33;7.53;;;2.88;;
69183;SDS011;56291;53.960;27.550;2023-03-01T17:15:00;6.38;;;3.00;;
69183;SDS011;56291;53.960;27.550;2023-03-01T17:17:26;5.22;;;2.50;;
69183;SDS011;56291;53.960;27.550;2023-03-01T17:19:52;11.23;;;3.33;;
69183;SDS011;56291;53.960;27.550;2023-03-01T17:22:19;15.65;;;4.50;;
69183;SDS011;56291;53.960;27.550;2023-03-01T17:24:45;11.68;;;3.40;;
69183;SDS011;56291;53.960;27.550;2023-03-01T17:27:11;6.75;;;2.50;;
69183;SDS011;56291;53.960;27.550;2023-03-01T17:29:39;5.90;;;2.08;;
69183;SDS011;56291;53.960;27.550;2023-03-01T17:32:07;6.30;;;2.20;;
69183;SDS011;56291;53.960;27.550;2023-03-01T17:34:34;6.70;;;2.67;;
69183;SDS011;56291;53.960;27.550;2023-03-01T17:37:01;7.03;;;2.03;;
69183;SDS011;56291;53.960;27.550;2023-03-01T17:39:27;6.75;;;2.17;;
69183;SDS011;56291;53.960;27.550;2023-03-01T17:42:00;4.18;;;1.73;;
69183;SDS011;56291;53.960;27.550;2023-03-01T17:44:30;8.77;;;3.17;;
69183;SDS011;56291;53.960;27.550;2023-03-01T17:46:58;12.13;;;4.25;;
69183;SDS011;56291;53.960;27.550;2023-03-01T17:49:25;10.35;;;2.80;;
69183;SDS011;56291;53.960;27.550;2023-03-01T17:51:51;6.18;;;2.45;;
69183;SDS011;56291;53.960;27.550;2023-03-01T17:54:18;4.63;;;2.15;;
69183;SDS011;56291;53.960;27.550;2023-03-01T17:56:44;5.28;;;2.45;;
69183;SDS011;56291;53.960;27.550;2023-03-01T17:59:10;5.90;;;2.38;;
69183;SDS011;56291;53.960;27.550;2023-03-01T18:01:39;8.75;;;1.88;;
69183;SDS011;56291;53.960;27.550;2023-03-01T18:04:06;7.43;;;2.50;;
69183;SDS011;56291;53.960;27.550;2023-03-01T18:06:35;9.52;;;2.25;;
69183;SDS011;56291;53.960;27.550;2023-03-01T18:09:02;8.93;;;2.55;;
69183;SDS011;56291;53.960;27.550;2023-03-01T18:11:28;8.85;;;2.30;;
69183;SDS011;56291;53.960;27.550;2023-03-01T18:13:57;4.57;;;2.17;;
69183;SDS011;56291;53.960;27.550;2023-03-01T18:16:23;6.88;;;1.88;;
69183;SDS011;56291;53.960;27.550;2023-03-01T18:18:53;7.15;;;1.95;;
69183;SDS011;56291;53.960;27.550;2023-03-01T18:21:21;7.55;;;2.15;;
69183;SDS011;56291;53.960;27.550;2023-03-01T18:23:47;4.53;;;2.13;;
69183;SDS011;56291;53.960;27.550;2023-03-01T18:26:14;7.57;;;1.90;;
69183;SDS011;56291;53.960;27.550;2023-03-01T18:28:44;6.90;;;2.45;;
69183;SDS011;56291;53.960;27.550;2023-03-01T18:31:30;6.70;;;2.30;;
69183;SDS011;56291;53.960;27.550;2023-03-01T18:33:57;7.68;;;2.25;;
69183;SDS011;56291;53.960;27.550;2023-03-01T18:36:28;4.55;;;2.25;;
69183;SDS011;56291;53.960;27.550;2023-03-01T18:39:45;6.53;;;2.47;;
69183;SDS011;56291;53.960;27.550;2023-03-01T18:42:15;5.00;;;2.03;;
69183;SDS011;56291;53.960;27.550;2023-03-01T18:44:44;8.30;;;2.42;;
69183;SDS011;56291;53.960;27.550;2023-03-01T18:47:12;4.90;;;2.33;;
69183;SDS011;56291;53.960;27.550;2023-03-01T18:49:42;6.20;;;1.98;;
69183;SDS011;56291;53.960;27.550;2023-03-01T18:52:10;3.85;;;2.00;;
69183;SDS011;56291;53.960;27.550;2023-03-01T18:54:37;5.03;;;1.90;;
69183;SDS011;56291;53.960;27.550;2023-03-01T18:57:04;7.25;;;2.40;;
69183;SDS011;56291;53.960;27.550;2023-03-01T18:59:30;4.07;;;2.15;;
69183;SDS011;56291;53.960;27.550;2023-03-01T19:01:56;3.20;;;1.73;;
